Time;durP1;ratioP1;P1;durP2;ratioP2;P2;SDS_P1;SDS_P2;PMS_P1;PMS_P2;Temp;Humidity;BMP_temperature;BMP_pressure;BME280_temperature;BME280_humidity;BME280_pressure;Samples;Min_cycle;Max_cycle;Signal;HPM_P1;HPM_P2
2021/09/05 00:01:24;;;;;;;37.45;20.67;;;10.00;99.90;;;;;;5014833;28;20164;-76
2021/09/05 00:03:51;;;;;;;37.03;20.20;;;9.90;99.90;;;;;;5046161;28;20140;-75
2021/09/05 00:06:18;;;;;;;32.05;19.20;;;9.90;99.90;;;;;;5024588;28;20052;-76
2021/09/05 00:08:45;;;;;;;36.05;19.52;;;9.70;99.90;;;;;;5045801;28;20060;-74
2021/09/05 00:11:12;;;;;;;37.95;20.10;;;9.60;99.90;;;;;;5046446;28;20067;-75
2021/09/05 00:13:38;;;;;;;32.40;18.75;;;9.70;99.90;;;;;;5044292;28;20064;-75
2021/09/05 00:16:05;;;;;;;38.85;19.73;;;9.60;99.90;;;;;;5040888;28;20540;-75
2021/09/05 00:18:32;;;;;;;30.77;17.98;;;9.60;99.90;;;;;;5064155;28;20055;-76
2021/09/05 00:20:59;;;;;;;36.95;19.80;;;9.60;99.90;;;;;;5044643;28;20056;-75
2021/09/05 00:23:26;;;;;;;29.95;17.95;;;9.60;99.90;;;;;;5062818;28;20060;-75
2021/09/05 00:25:53;;;;;;;33.50;19.20;;;9.50;99.90;;;;;;5053027;28;20041;-75
2021/09/05 00:28:20;;;;;;;31.58;17.75;;;9.40;99.90;;;;;;5047046;28;20453;-76
2021/09/05 00:30:46;;;;;;;31.65;17.80;;;9.40;99.90;;;;;;5025981;28;20485;-75
2021/09/05 00:33:13;;;;;;;32.05;17.67;;;9.30;99.90;;;;;;5043730;28;20113;-76
2021/09/05 00:35:40;;;;;;;39.35;18.80;;;9.30;99.90;;;;;;5052339;28;20279;-75
2021/09/05 00:38:07;;;;;;;36.13;18.48;;;9.50;99.90;;;;;;5026155;28;20048;-75
2021/09/05 00:40:34;;;;;;;38.50;19.70;;;9.50;99.90;;;;;;5025308;28;20137;-75
2021/09/05 00:43:01;;;;;;;42.35;19.27;;;9.50;99.90;;;;;;5026304;28;20061;-74
2021/09/05 00:45:27;;;;;;;38.38;18.95;;;9.60;99.90;;;;;;5026584;28;20398;-75
2021/09/05 00:47:54;;;;;;;38.78;17.65;;;9.60;99.90;;;;;;5046263;28;20060;-76
2021/09/05 00:50:21;;;;;;;35.83;16.75;;;9.50;99.90;;;;;;5029124;28;20451;-75
2021/09/05 00:52:48;;;;;;;42.13;17.98;;;9.50;99.90;;;;;;5033431;28;20052;-75
2021/09/05 00:55:15;;;;;;;42.50;18.58;;;9.50;99.90;;;;;;5042019;28;20183;-74
2021/09/05 00:57:44;;;;;;;46.80;18.98;;;9.50;99.90;;;;;;5041519;28;20144;-74
2021/09/05 01:00:13;;;;;;;45.28;19.58;;;9.60;99.90;;;;;;5043538;28;20493;-76
2021/09/05 01:02:42;;;;;;;45.83;19.50;;;9.70;99.90;;;;;;5009102;28;20559;-75
2021/09/05 01:05:09;;;;;;;37.78;17.55;;;9.70;99.90;;;;;;5017479;28;20048;-76
2021/09/05 01:07:38;;;;;;;39.72;17.45;;;9.90;99.90;;;;;;5055378;28;20052;-73
2021/09/05 01:10:07;;;;;;;32.40;15.50;;;9.90;99.90;;;;;;5028846;28;20148;-75
2021/09/05 01:12:36;;;;;;;23.38;12.57;;;9.90;99.90;;;;;;5018170;28;20463;-75
2021/09/05 01:15:03;;;;;;;20.88;11.30;;;9.50;99.90;;;;;;5030167;28;20044;-76
2021/09/05 01:17:36;;;;;;;25.63;13.88;;;9.30;99.90;;;;;;5029028;28;20051;-75
2021/09/05 01:20:32;;;;;;;32.45;15.15;;;9.20;99.90;;;;;;5019228;28;20064;-75
2021/09/05 01:23:22;;;;;;;31.13;14.18;;;9.20;99.90;;;;;;5025009;28;20417;-76
2021/09/05 01:26:12;;;;;;;30.88;13.70;;;9.30;99.90;;;;;;5023258;28;20504;-76
2021/09/05 01:29:03;;;;;;;26.27;13.73;;;9.10;99.90;;;;;;5031362;28;20064;-76
2021/09/05 01:31:51;;;;;;;24.02;13.70;;;9.20;99.90;;;;;;5040728;28;20045;-77
2021/09/05 01:34:37;;;;;;;18.27;10.50;;;9.10;99.90;;;;;;5050656;28;20502;-75
2021/09/05 01:37:26;;;;;;;30.33;14.32;;;8.80;99.90;;;;;;5018990;28;20068;-77
2021/09/05 01:40:13;;;;;;;32.03;14.70;;;8.80;99.90;;;;;;5048036;28;20515;-76
2021/09/05 01:43:12;;;;;;;35.25;14.60;;;8.90;99.90;;;;;;5011259;28;20055;-76
2021/09/05 01:45:59;;;;;;;42.33;15.90;;;9.30;99.90;;;;;;5047671;28;20109;-75
2021/09/05 01:48:52;;;;;;;31.45;14.77;;;9.30;99.90;;;;;;5062611;28;20049;-76
2021/09/05 01:51:48;;;;;;;34.33;15.50;;;9.50;99.90;;;;;;5044389;28;20051;-77
2021/09/05 01:54:45;;;;;;;33.17;13.98;;;9.50;99.90;;;;;;5043229;28;20045;-76
2021/09/05 01:57:30;;;;;;;;;;;9.40;99.90;;;;;;5034286;28;20497;-76
2021/09/05 02:00:26;;;;;;;37.07;13.63;;;9.50;99.90;;;;;;5030793;28;20188;-76
2021/09/05 02:03:07;;;;;;;36.05;18.42;;;9.30;99.90;;;;;;5025004;28;20501;-76
2021/09/05 02:05:56;;;;;;;27.45;15.20;;;9.10;99.90;;;;;;5014120;28;20045;-75
2021/09/05 02:08:42;;;;;;;31.33;15.80;;;8.90;99.90;;;;;;5022825;28;20053;-77
2021/09/05 02:11:29;;;;;;;33.50;15.85;;;8.80;99.90;;;;;;5006449;28;20200;-76
2021/09/05 02:14:21;;;;;;;31.35;14.98;;;8.80;99.90;;;;;;5025472;28;20140;-76
2021/09/05 02:17:08;;;;;;;35.97;15.75;;;8.80;99.90;;;;;;5029693;28;20197;-75
2021/09/05 02:19:47;;;;;;;35.00;16.20;;;8.90;99.90;;;;;;5029780;28;20048;-76
2021/09/05 02:22:49;;;;;;;37.22;14.90;;;8.90;99.90;;;;;;5054051;28;20513;-73
2021/09/05 02:25:39;;;;;;;32.05;15.27;;;8.80;99.90;;;;;;5037501;28;20044;-76
2021/09/05 02:28:15;;;;;;;38.85;16.98;;;8.90;99.90;;;;;;5034947;28;20368;-73
2021/09/05 02:31:00;;;;;;;34.20;15.73;;;8.90;99.90;;;;;;5046193;28;20057;-77
2021/09/05 02:33:46;;;;;;;48.45;19.27;;;9.00;99.90;;;;;;5029416;28;20262;-74
2021/09/05 02:36:25;;;;;;;44.47;20.27;;;9.10;99.90;;;;;;5015244;28;20053;-76
2021/09/05 02:39:15;;;;;;;52.60;21.35;;;9.60;99.90;;;;;;5048483;28;20044;-74
2021/09/05 02:42:04;;;;;;;51.55;19.83;;;9.70;99.90;;;;;;5065803;28;20373;-73
2021/09/05 02:44:58;;;;;;;41.03;19.50;;;10.00;99.90;;;;;;5031851;28;20230;-74
2021/09/05 02:47:49;;;;;;;43.50;18.73;;;9.80;99.90;;;;;;5045123;28;20040;-76
2021/09/05 02:50:32;;;;;;;43.47;18.27;;;9.60;99.90;;;;;;5036548;28;20519;-74
2021/09/05 02:53:18;;;;;;;;;;;9.50;99.90;;;;;;5034849;28;20048;-74
2021/09/05 02:56:20;;;;;;;41.85;17.35;;;9.40;99.90;;;;;;4953910;28;19922;-75
2021/09/05 02:59:16;;;;;;;41.88;19.13;;;9.20;99.90;;;;;;5055258;28;20505;-74
2021/09/05 03:02:05;;;;;;;39.47;19.17;;;9.20;99.90;;;;;;5033773;28;20132;-74
2021/09/05 03:04:53;;;;;;;58.13;23.65;;;9.50;99.90;;;;;;5019600;28;20044;-74
2021/09/05 03:07:49;;;;;;;54.45;22.77;;;9.50;99.90;;;;;;5026987;28;20761;-74
2021/09/05 03:10:34;;;;;;;;;;;9.60;99.90;;;;;;5035729;28;20061;-74
2021/09/05 03:13:19;;;;;;;60.33;25.33;;;9.70;99.90;;;;;;5030941;28;19920;-74
2021/09/05 03:16:08;;;;;;;50.63;23.23;;;10.10;99.90;;;;;;5010105;28;20041;-74
2021/09/05 03:19:00;;;;;;;57.97;25.20;;;10.10;99.90;;;;;;5017154;28;20149;-73
2021/09/05 03:21:53;;;;;;;64.88;24.83;;;10.20;99.90;;;;;;5047303;28;20048;-73
2021/09/05 03:24:38;;;;;;;;;;;10.10;99.90;;;;;;5048184;28;20045;-74
2021/09/05 03:27:25;;;;;;;69.10;26.50;;;10.00;99.90;;;;;;5016250;28;19947;-74
2021/09/05 03:30:18;;;;;;;80.53;28.63;;;9.90;99.90;;;;;;5021132;28;20064;-76
2021/09/05 03:33:04;;;;;;;;;;;9.80;99.90;;;;;;5024778;28;20045;-74
2021/09/05 03:36:06;;;;;;;85.15;30.10;;;9.70;99.90;;;;;;5039061;28;19926;-75
2021/09/05 03:38:49;;;;;;;72.25;28.65;;;9.80;99.90;;;;;;5044091;28;20060;-74
2021/09/05 03:41:31;;;;;;;75.45;28.58;;;9.90;99.90;;;;;;4993716;28;20061;-74
2021/09/05 03:44:07;;;;;;;86.97;31.48;;;10.00;99.90;;;;;;5025564;28;20045;-74
2021/09/05 03:46:53;;;;;;;88.03;30.15;;;10.10;99.90;;;;;;5009948;28;20055;-73
2021/09/05 03:49:35;;;;;;;79.65;31.42;;;10.30;99.90;;;;;;5007803;28;20085;-76
2021/09/05 03:52:05;;;;;;;78.65;30.42;;;10.50;99.90;;;;;;5042188;28;20049;-76
2021/09/05 03:54:33;;;;;;;72.50;29.00;;;10.60;99.90;;;;;;5018824;28;20052;-75
2021/09/05 03:57:00;;;;;;;78.50;29.85;;;10.60;99.90;;;;;;5029081;28;20075;-76
2021/09/05 03:59:27;;;;;;;65.85;28.25;;;10.70;99.90;;;;;;5025943;28;20099;-75
2021/09/05 04:01:54;;;;;;;76.13;28.35;;;10.80;99.90;;;;;;5013001;28;20519;-75
2021/09/05 04:04:25;;;;;;;69.03;27.52;;;10.70;99.90;;;;;;5014947;28;20037;-75
2021/09/05 04:07:01;;;;;;;72.85;28.77;;;10.70;99.90;;;;;;5027854;28;20258;-75
2021/09/05 04:12:17;;;;;;;63.50;26.13;;;10.60;99.90;;;;;;5034058;28;20044;-75
2021/09/05 04:14:44;;;;;;;74.85;28.88;;;10.60;99.90;;;;;;5008810;28;20059;-75
2021/09/05 04:17:11;;;;;;;67.15;28.20;;;10.60;99.90;;;;;;5025570;28;20545;-75
2021/09/05 04:19:37;;;;;;;66.45;25.80;;;10.50;99.90;;;;;;5044982;28;20466;-76
2021/09/05 04:22:05;;;;;;;70.28;29.40;;;10.40;99.90;;;;;;5055168;28;20102;-76
2021/09/05 04:24:32;;;;;;;73.93;28.90;;;10.50;99.90;;;;;;5064538;28;20106;-75
2021/09/05 04:26:58;;;;;;;73.47;27.85;;;10.40;99.90;;;;;;5064341;28;20056;-75
2021/09/05 04:29:25;;;;;;;80.90;29.40;;;10.50;99.90;;;;;;5045877;28;20041;-76
2021/09/05 04:31:52;;;;;;;72.85;28.20;;;10.50;99.90;;;;;;5033244;28;20114;-73
2021/09/05 04:34:19;;;;;;;69.15;27.75;;;10.50;99.90;;;;;;5025031;28;20171;-74
2021/09/05 04:36:46;;;;;;;70.07;28.88;;;10.40;99.90;;;;;;5059807;28;20079;-78
2021/09/05 04:39:13;;;;;;;71.75;31.48;;;10.50;99.90;;;;;;5064056;28;20328;-74
2021/09/05 04:41:39;;;;;;;68.25;28.20;;;10.60;99.90;;;;;;5063165;28;20083;-74
2021/09/05 04:44:06;;;;;;;69.28;29.45;;;10.50;99.90;;;;;;5046422;28;20328;-75
2021/09/05 04:46:33;;;;;;;64.65;26.55;;;10.50;99.90;;;;;;5044225;28;20126;-73
2021/09/05 04:49:00;;;;;;;83.47;28.90;;;10.50;99.90;;;;;;5063178;28;20278;-74
2021/09/05 04:51:26;;;;;;;68.28;27.77;;;10.50;99.90;;;;;;5045614;28;20049;-74
2021/09/05 04:53:53;;;;;;;69.78;27.52;;;10.50;99.90;;;;;;5027207;28;20307;-74
2021/09/05 04:56:20;;;;;;;67.05;28.27;;;10.70;99.90;;;;;;5025864;28;20049;-74
2021/09/05 04:58:47;;;;;;;65.95;27.08;;;10.70;99.90;;;;;;5044034;28;20102;-75
2021/09/05 05:01:13;;;;;;;63.33;26.98;;;10.70;99.90;;;;;;5027164;28;20326;-74
2021/09/05 05:03:41;;;;;;;61.10;27.58;;;10.60;99.90;;;;;;5043869;28;20265;-75
2021/09/05 05:06:27;;;;;;;63.08;25.95;;;10.60;99.90;;;;;;5040086;28;20528;-74
2021/09/05 05:08:54;;;;;;;70.65;29.13;;;10.70;99.90;;;;;;5063249;28;20156;-75
2021/09/05 05:11:21;;;;;;;62.38;27.20;;;10.70;99.90;;;;;;5044175;28;20055;-74
2021/09/05 05:13:48;;;;;;;62.25;26.27;;;10.80;99.90;;;;;;5055218;28;20102;-75
2021/09/05 05:16:14;;;;;;;63.90;26.02;;;10.70;99.90;;;;;;5062504;28;20084;-75
2021/09/05 05:18:41;;;;;;;50.42;24.40;;;10.70;99.90;;;;;;5064033;28;20056;-75
2021/09/05 05:21:09;;;;;;;57.38;24.88;;;10.70;99.90;;;;;;5039489;28;20049;-74
2021/09/05 05:23:36;;;;;;;56.83;25.13;;;10.80;99.90;;;;;;5025524;28;20049;-75
2021/09/05 05:26:03;;;;;;;50.33;24.65;;;10.80;99.90;;;;;;5043186;28;20056;-74
2021/09/05 05:28:30;;;;;;;53.22;24.05;;;10.90;99.90;;;;;;5024405;28;20053;-74
2021/09/05 05:30:57;;;;;;;55.20;25.02;;;10.90;99.90;;;;;;5015656;28;20190;-75
2021/09/05 05:33:24;;;;;;;50.97;24.98;;;10.90;99.90;;;;;;5034930;28;20057;-75
2021/09/05 05:35:50;;;;;;;47.00;23.85;;;10.90;99.90;;;;;;5052062;28;20040;-74
2021/09/05 05:38:17;;;;;;;50.95;24.50;;;11.00;99.90;;;;;;5006579;28;20503;-74
2021/09/05 05:40:44;;;;;;;56.90;26.13;;;11.00;99.90;;;;;;5042615;28;20107;-75
2021/09/05 05:43:11;;;;;;;51.08;23.88;;;11.00;99.90;;;;;;5025396;28;20053;-74
2021/09/05 05:45:37;;;;;;;46.92;23.42;;;11.00;99.90;;;;;;5061774;28;20511;-74
2021/09/05 05:48:05;;;;;;;45.42;23.85;;;11.10;99.90;;;;;;5062688;28;20543;-74
2021/09/05 05:50:31;;;;;;;51.03;24.25;;;11.20;99.90;;;;;;5062199;28;20536;-74
2021/09/05 05:52:58;;;;;;;51.65;23.27;;;11.20;99.90;;;;;;5032438;28;20049;-75
2021/09/05 05:55:25;;;;;;;51.25;23.38;;;11.30;99.90;;;;;;5034719;28;20056;-74
2021/09/05 05:57:52;;;;;;;48.00;23.70;;;11.30;99.90;;;;;;5028503;28;20056;-75
2021/09/05 06:00:19;;;;;;;50.80;24.83;;;11.30;99.90;;;;;;5027597;28;20106;-74
2021/09/05 06:02:46;;;;;;;49.00;22.95;;;11.40;99.90;;;;;;5027145;28;20414;-74
2021/09/05 06:05:13;;;;;;;49.28;23.75;;;11.40;99.90;;;;;;5054984;28;20056;-75
2021/09/05 06:07:40;;;;;;;46.42;21.70;;;11.50;99.90;;;;;;5033255;28;20049;-74
2021/09/05 06:10:07;;;;;;;46.95;23.55;;;11.50;99.90;;;;;;5010548;28;20045;-75
2021/09/05 06:12:34;;;;;;;47.97;22.80;;;11.60;99.90;;;;;;5028296;28;20057;-75
2021/09/05 06:15:01;;;;;;;43.10;22.50;;;11.50;99.90;;;;;;5027212;28;20045;-74
2021/09/05 06:17:29;;;;;;;49.28;22.35;;;11.60;99.90;;;;;;5027177;28;20052;-75
2021/09/05 06:19:55;;;;;;;42.22;23.52;;;11.70;99.90;;;;;;5046449;28;20076;-74
2021/09/05 06:22:22;;;;;;;38.08;21.38;;;11.80;99.90;;;;;;5045795;28;20509;-74
2021/09/05 06:24:49;;;;;;;41.67;21.48;;;11.80;99.90;;;;;;5048221;28;20053;-74
2021/09/05 06:27:16;;;;;;;42.30;22.83;;;11.90;99.90;;;;;;5025620;28;20107;-74
2021/09/05 06:29:43;;;;;;;38.15;19.85;;;12.00;99.90;;;;;;5044625;28;20080;-78
2021/09/05 06:32:10;;;;;;;49.40;22.73;;;12.00;99.90;;;;;;5044097;28;20571;-75
2021/09/05 06:34:37;;;;;;;45.38;21.83;;;12.10;99.90;;;;;;5034818;28;20040;-76
2021/09/05 06:37:03;;;;;;;37.92;20.27;;;12.20;99.90;;;;;;5043813;28;20303;-75
2021/09/05 06:39:30;;;;;;;39.58;21.45;;;12.20;99.90;;;;;;5031621;28;20047;-76
2021/09/05 06:41:59;;;;;;;41.35;20.48;;;12.30;99.90;;;;;;5067038;28;20044;-75
2021/09/05 06:44:26;;;;;;;36.75;20.42;;;12.40;99.90;;;;;;5048075;28;20071;-74
2021/09/05 06:46:53;;;;;;;35.33;19.83;;;12.50;99.90;;;;;;5063648;28;20314;-74
2021/09/05 06:49:20;;;;;;;41.28;21.83;;;12.60;99.90;;;;;;5028633;28;20506;-74
2021/09/05 06:51:47;;;;;;;43.58;21.40;;;12.70;99.90;;;;;;5024587;28;20520;-74
2021/09/05 06:54:13;;;;;;;41.60;22.58;;;12.80;99.90;;;;;;5008795;28;20057;-74
2021/09/05 06:56:40;;;;;;;44.50;22.17;;;12.80;99.90;;;;;;5046357;28;20076;-75
2021/09/05 06:59:07;;;;;;;38.15;21.13;;;12.90;99.90;;;;;;5028283;28;20409;-75
2021/09/05 07:01:37;;;;;;;40.55;20.00;;;13.00;99.90;;;;;;5045357;28;20049;-75
2021/09/05 07:04:04;;;;;;;43.05;21.33;;;13.10;99.90;;;;;;5031408;28;20563;-75
2021/09/05 07:06:31;;;;;;;41.60;22.48;;;13.30;99.90;;;;;;5033714;28;20297;-74
2021/09/05 07:08:58;;;;;;;36.28;19.05;;;13.50;99.90;;;;;;5047409;28;20064;-75
2021/09/05 07:11:24;;;;;;;32.53;18.65;;;13.80;99.90;;;;;;5043337;28;20196;-74
2021/09/05 07:13:51;;;;;;;32.88;18.27;;;13.90;99.90;;;;;;5027180;28;20413;-75
2021/09/05 07:16:18;;;;;;;32.33;17.35;;;14.00;99.90;;;;;;5027461;28;20049;-75
2021/09/05 07:18:45;;;;;;;33.53;18.58;;;14.20;99.90;;;;;;5065539;28;20048;-75
2021/09/05 07:21:12;;;;;;;30.85;18.48;;;14.10;99.90;;;;;;5063036;28;20060;-75
2021/09/05 07:23:39;;;;;;;27.80;18.25;;;14.30;99.90;;;;;;5048073;28;20057;-75
2021/09/05 07:26:05;;;;;;;29.38;17.35;;;14.50;99.90;;;;;;5031114;28;20137;-75
2021/09/05 07:28:33;;;;;;;27.20;16.02;;;14.50;99.90;;;;;;5049294;28;20128;-74
2021/09/05 07:31:03;;;;;;;24.83;15.95;;;14.60;99.90;;;;;;5030076;28;20509;-74
2021/09/05 07:33:30;;;;;;;31.42;17.25;;;14.80;99.90;;;;;;5048086;28;20063;-74
2021/09/05 07:35:57;;;;;;;27.45;16.58;;;14.90;99.90;;;;;;5039211;28;20137;-74
2021/09/05 07:38:23;;;;;;;28.20;17.38;;;15.10;99.90;;;;;;5038844;28;20501;-75
2021/09/05 07:40:50;;;;;;;28.60;15.88;;;15.20;99.90;;;;;;5045121;28;20069;-74
2021/09/05 07:43:17;;;;;;;24.92;16.13;;;15.30;99.90;;;;;;5027781;28;20072;-74
2021/09/05 07:45:44;;;;;;;21.75;16.35;;;15.40;99.90;;;;;;5027631;28;20068;-76
2021/09/05 07:48:10;;;;;;;24.42;16.40;;;15.60;99.90;;;;;;5051449;28;20052;-75
2021/09/05 07:50:37;;;;;;;20.13;15.27;;;15.60;99.90;;;;;;5056457;28;20099;-75
2021/09/05 07:53:04;;;;;;;25.58;15.73;;;15.60;99.90;;;;;;5029085;28;20080;-75
2021/09/05 07:55:31;;;;;;;23.42;15.82;;;15.90;99.90;;;;;;5048431;28;20094;-74
2021/09/05 07:57:58;;;;;;;19.92;14.70;;;15.90;99.90;;;;;;5046483;28;20056;-75
2021/09/05 08:00:24;;;;;;;28.83;16.70;;;16.10;99.90;;;;;;5051887;28;20312;-74
2021/09/05 08:02:51;;;;;;;26.35;16.27;;;16.10;99.90;;;;;;5045916;28;20131;-75
2021/09/05 08:05:18;;;;;;;22.75;15.48;;;16.00;99.90;;;;;;5023967;28;20080;-76
2021/09/05 08:07:45;;;;;;;19.55;15.65;;;16.30;99.90;;;;;;5046252;28;20054;-74
2021/09/05 08:10:12;;;;;;;23.60;18.05;;;16.30;99.90;;;;;;5019003;28;20041;-75
2021/09/05 08:12:39;;;;;;;24.23;16.63;;;16.40;99.90;;;;;;5038402;28;20147;-76
2021/09/05 08:15:06;;;;;;;20.13;15.68;;;16.40;99.90;;;;;;5045661;28;20052;-74
2021/09/05 08:17:33;;;;;;;21.50;16.30;;;16.50;99.90;;;;;;5055754;28;20103;-74
2021/09/05 08:20:00;;;;;;;22.40;15.55;;;16.80;99.90;;;;;;5026371;28;20048;-75
2021/09/05 08:22:27;;;;;;;20.50;15.73;;;17.10;99.90;;;;;;5054639;28;20055;-75
2021/09/05 08:24:54;;;;;;;23.02;16.23;;;16.90;99.90;;;;;;5043381;28;20750;-74
2021/09/05 08:27:21;;;;;;;17.02;14.20;;;17.00;99.90;;;;;;5041406;28;20134;-75
2021/09/05 08:29:47;;;;;;;18.30;15.82;;;17.30;99.90;;;;;;5033855;28;20155;-75
2021/09/05 08:32:14;;;;;;;19.92;16.95;;;17.30;99.90;;;;;;5045502;28;20148;-74
2021/09/05 08:34:41;;;;;;;19.75;17.38;;;17.50;99.90;;;;;;5051000;28;20048;-75
2021/09/05 08:37:07;;;;;;;22.48;17.20;;;17.90;99.90;;;;;;5026163;28;20563;-75
2021/09/05 08:39:34;;;;;;;19.25;16.92;;;18.10;99.90;;;;;;5030100;28;20523;-76
2021/09/05 08:42:01;;;;;;;23.23;19.30;;;18.60;99.90;;;;;;5015880;28;20216;-75
2021/09/05 08:44:28;;;;;;;19.95;17.67;;;18.10;99.90;;;;;;5043520;28;20464;-77
2021/09/05 08:46:55;;;;;;;21.90;17.15;;;18.10;99.90;;;;;;5024816;28;20049;-75
2021/09/05 08:49:27;;;;;;;18.95;16.52;;;17.60;99.90;;;;;;5043398;28;20106;-76
2021/09/05 08:51:55;;;;;;;21.45;17.15;;;17.80;99.90;;;;;;5025166;28;20057;-76
2021/09/05 08:54:22;;;;;;;22.35;16.73;;;18.10;99.90;;;;;;5027325;28;20346;-76
2021/09/05 08:56:53;;;;;;;20.38;18.20;;;17.90;99.90;;;;;;5008238;28;20542;-75
2021/09/05 08:59:21;;;;;;;18.50;16.25;;;18.40;99.90;;;;;;5041565;28;20658;-75
2021/09/05 09:01:55;;;;;;;24.88;18.10;;;18.30;99.90;;;;;;5027420;28;20049;-75
2021/09/05 09:04:23;;;;;;;;;;;18.10;99.90;;;;;;5048943;28;20120;-76
2021/09/05 09:06:50;;;;;;;21.90;19.27;;;18.00;99.90;;;;;;5041356;28;19935;-75
2021/09/05 09:09:16;;;;;;;23.42;17.13;;;17.80;99.90;;;;;;5042726;28;20263;-76
2021/09/05 09:11:49;;;;;;;24.80;17.80;;;17.90;99.90;;;;;;5042774;28;20052;-75
2021/09/05 09:14:16;;;;;;;20.23;17.33;;;18.10;99.90;;;;;;5049284;28;20419;-75
2021/09/05 09:16:43;;;;;;;23.45;18.23;;;18.40;99.90;;;;;;5042807;28;20048;-73
2021/09/05 09:19:28;;;;;;;23.55;18.95;;;18.50;99.90;;;;;;5042680;28;20049;-74
2021/09/05 09:21:56;;;;;;;23.65;19.20;;;18.80;99.90;;;;;;5051605;28;20113;-74
2021/09/05 09:24:23;;;;;;;20.15;17.02;;;18.30;99.90;;;;;;5055420;28;20612;-74
2021/09/05 09:27:05;;;;;;;22.17;18.30;;;18.40;99.90;;;;;;5062749;28;20048;-76
2021/09/05 09:29:36;;;;;;;25.95;19.60;;;18.30;99.90;;;;;;5061245;28;20061;-74
2021/09/05 09:32:16;;;;;;;19.95;17.90;;;18.40;99.90;;;;;;5050595;28;20497;-75
2021/09/05 09:34:46;;;;;;;25.48;19.40;;;18.50;99.90;;;;;;5063843;28;20048;-75
2021/09/05 09:37:19;;;;;;;21.83;18.63;;;18.60;99.90;;;;;;5012156;28;20095;-77
2021/09/05 09:39:56;;;;;;;21.98;19.75;;;18.60;99.90;;;;;;5045528;28;20053;-74
2021/09/05 09:42:40;;;;;;;21.40;19.10;;;19.10;99.90;;;;;;5026798;28;20052;-74
2021/09/05 09:45:12;;;;;;;20.75;18.13;;;19.30;99.90;;;;;;5029125;28;20132;-74
2021/09/05 09:47:44;;;;;;;21.92;19.33;;;19.60;99.90;;;;;;5025549;28;20053;-75
2021/09/05 09:50:11;;;;;;;23.52;18.60;;;19.60;99.90;;;;;;5040947;28;20098;-73
2021/09/05 09:52:39;;;;;;;20.50;18.35;;;19.60;99.90;;;;;;5021839;28;20063;-73
2021/09/05 09:55:07;;;;;;;20.77;18.58;;;19.70;99.90;;;;;;5028181;28;20068;-74
2021/09/05 09:57:34;;;;;;;21.00;18.77;;;19.60;99.90;;;;;;5043097;28;20053;-73
2021/09/05 10:00:03;;;;;;;26.00;18.77;;;19.30;99.90;;;;;;5021178;28;20106;-74
2021/09/05 10:02:42;;;;;;;26.42;19.33;;;18.70;99.90;;;;;;5043121;28;20475;-73
2021/09/05 10:05:12;;;;;;;22.77;19.45;;;18.40;99.90;;;;;;5024938;28;20468;-73
2021/09/05 10:07:41;;;;;;;21.55;18.45;;;18.90;99.90;;;;;;5022244;28;20083;-74
2021/09/05 10:10:09;;;;;;;21.27;18.98;;;18.80;99.90;;;;;;5042482;28;20057;-74
2021/09/05 10:12:37;;;;;;;21.23;19.00;;;19.00;99.90;;;;;;5042381;28;20052;-75
2021/09/05 10:15:06;;;;;;;28.55;18.20;;;18.60;99.90;;;;;;5047332;28;20048;-74
2021/09/05 10:17:39;;;;;;;20.48;18.20;;;18.50;99.90;;;;;;5035737;28;20071;-75
2021/09/05 10:20:07;;;;;;;22.80;18.00;;;18.70;99.90;;;;;;5023651;28;20470;-73
2021/09/05 10:22:34;;;;;;;20.60;17.83;;;19.30;99.90;;;;;;5035178;28;20067;-73
2021/09/05 10:25:03;;;;;;;23.00;20.35;;;19.20;99.90;;;;;;5062608;28;20304;-74
2021/09/05 10:27:31;;;;;;;21.52;18.70;;;19.00;99.90;;;;;;5028443;28;20045;-73
2021/09/05 10:30:07;;;;;;;22.98;20.45;;;19.30;99.90;;;;;;5060528;28;20412;-74
2021/09/05 10:32:51;;;;;;;22.67;20.15;;;19.50;99.90;;;;;;5042760;28;20064;-74
2021/09/05 10:35:27;;;;;;;21.75;19.45;;;19.40;99.90;;;;;;5050351;28;20417;-74
2021/09/05 10:38:09;;;;;;;28.08;21.13;;;19.40;99.90;;;;;;5048145;28;20559;-74
2021/09/05 10:40:43;;;;;;;22.40;20.15;;;20.20;99.90;;;;;;5024379;28;20525;-74
2021/09/05 10:43:10;;;;;;;22.27;19.92;;;20.20;99.90;;;;;;5046479;28;20106;-74
2021/09/05 10:45:39;;;;;;;22.98;20.38;;;19.90;99.90;;;;;;5045890;28;20053;-73
2021/09/05 10:48:35;;;;;;;20.48;18.45;;;20.50;99.90;;;;;;5047952;28;20056;-75
2021/09/05 10:51:09;;;;;;;20.75;18.67;;;20.80;99.90;;;;;;5039984;28;20221;-73
2021/09/05 10:53:51;;;;;;;22.98;20.50;;;21.30;99.90;;;;;;5027878;28;20110;-73
2021/09/05 10:56:41;;;;;;;20.92;18.88;;;20.80;99.90;;;;;;5013342;28;20055;-73
2021/09/05 10:59:12;;;;;;;21.00;18.15;;;20.50;99.90;;;;;;5040901;28;20621;-74
2021/09/05 11:01:40;;;;;;;22.70;19.45;;;20.40;99.90;;;;;;5025206;28;20463;-74
2021/09/05 11:04:11;;;;;;;22.58;20.00;;;20.80;99.90;;;;;;5021748;28;20075;-75
2021/09/05 11:06:48;;;;;;;22.58;20.25;;;21.10;99.90;;;;;;5036328;28;20489;-73
2021/09/05 11:11:56;;;;;;;21.33;19.13;;;21.00;99.90;;;;;;5043367;28;20114;-74
2021/09/05 11:17:07;;;;;;;21.10;19.08;;;20.70;99.90;;;;;;5035621;28;20457;-76
2021/09/05 11:19:36;;;;;;;22.02;19.33;;;20.30;99.90;;;;;;5013380;28;20488;-77
2021/09/05 11:22:06;;;;;;;21.95;19.67;;;20.50;99.90;;;;;;5026454;28;20045;-74
2021/09/05 11:24:34;;;;;;;21.83;19.52;;;20.80;99.90;;;;;;5044420;28;20405;-74
2021/09/05 11:27:07;;;;;;;21.67;18.67;;;20.40;99.90;;;;;;5030896;28;20403;-74
2021/09/05 11:29:38;;;;;;;23.90;19.10;;;20.30;99.90;;;;;;5040352;28;20369;-74
2021/09/05 11:32:10;;;;;;;23.08;19.52;;;20.40;99.90;;;;;;4990760;28;20063;-75
2021/09/05 11:34:42;;;;;;;21.75;19.00;;;20.40;99.90;;;;;;5045527;28;20688;-74
2021/09/05 11:37:09;;;;;;;22.77;19.85;;;20.20;99.90;;;;;;5027795;28;20039;-75
2021/09/05 11:39:36;;;;;;;21.25;18.67;;;20.10;99.90;;;;;;5043926;28;20057;-74
2021/09/05 11:42:04;;;;;;;21.60;19.38;;;20.60;99.90;;;;;;5028976;28;20528;-74
2021/09/05 11:44:36;;;;;;;22.85;20.50;;;20.80;99.90;;;;;;5027478;28;20135;-74
2021/09/05 11:47:07;;;;;;;20.67;18.48;;;20.80;99.90;;;;;;5046624;28;20053;-75
2021/09/05 11:49:36;;;;;;;22.27;19.98;;;21.10;99.90;;;;;;5026788;28;20044;-73
2021/09/05 11:52:04;;;;;;;21.08;19.08;;;21.10;99.90;;;;;;5043619;28;20057;-74
2021/09/05 11:54:31;;;;;;;21.27;19.10;;;20.80;99.90;;;;;;5009448;28;20053;-76
2021/09/05 11:56:58;;;;;;;22.38;20.23;;;20.50;99.90;;;;;;5059528;28;20045;-75
2021/09/05 11:59:25;;;;;;;23.15;19.52;;;20.60;99.90;;;;;;5045282;28;20052;-76
2021/09/05 12:01:53;;;;;;;22.27;20.02;;;20.90;99.90;;;;;;5029638;28;20047;-76
2021/09/05 12:04:23;;;;;;;23.40;19.60;;;21.10;99.90;;;;;;5021727;28;20049;-75
2021/09/05 12:06:51;;;;;;;23.00;20.65;;;21.10;99.90;;;;;;5021867;28;20049;-76
2021/09/05 12:09:29;;;;;;;22.52;20.30;;;21.00;99.90;;;;;;5027368;28;20059;-75
2021/09/05 12:12:04;;;;;;;22.98;20.55;;;21.00;99.90;;;;;;5009535;28;20048;-76
2021/09/05 12:14:33;;;;;;;25.15;21.95;;;20.80;99.90;;;;;;5026595;28;20524;-77
2021/09/05 12:17:15;;;;;;;24.83;20.77;;;21.00;99.90;;;;;;5025867;28;20053;-76
2021/09/05 12:19:57;;;;;;;23.65;20.95;;;21.40;99.90;;;;;;5044143;28;20429;-75
2021/09/05 12:22:25;;;;;;;23.10;20.70;;;21.40;99.90;;;;;;5025736;28;20059;-76
2021/09/05 12:24:56;;;;;;;23.02;20.80;;;21.60;99.90;;;;;;5063760;28;20052;-76
2021/09/05 12:27:24;;;;;;;23.05;20.80;;;21.60;99.90;;;;;;5063613;28;20123;-76
2021/09/05 12:29:51;;;;;;;23.92;21.75;;;21.40;99.90;;;;;;5044393;28;20052;-76
2021/09/05 12:32:18;;;;;;;23.23;20.90;;;21.80;99.90;;;;;;5031443;28;20061;-75
2021/09/05 12:34:48;;;;;;;26.73;22.42;;;22.30;99.90;;;;;;5051341;28;20055;-76
2021/09/05 12:37:18;;;;;;;24.50;22.08;;;21.80;99.90;;;;;;5054899;28;20063;-76
2021/09/05 12:39:47;;;;;;;24.48;21.92;;;21.90;99.90;;;;;;5025970;28;20404;-75
2021/09/05 12:42:16;;;;;;;24.05;21.85;;;21.80;99.90;;;;;;5025329;28;20055;-76
2021/09/05 12:44:45;;;;;;;24.52;22.00;;;21.90;99.90;;;;;;5025416;28;20052;-75
2021/09/05 12:47:27;;;;;;;23.25;21.05;;;21.90;99.90;;;;;;5042709;28;20292;-76
2021/09/05 12:49:56;;;;;;;27.15;24.45;;;22.30;99.90;;;;;;5015469;28;20091;-76
2021/09/05 12:52:32;;;;;;;25.77;23.48;;;22.10;99.90;;;;;;5045178;28;20053;-76
2021/09/05 12:55:01;;;;;;;;;;;22.10;99.90;;;;;;5060112;28;20241;-75
2021/09/05 12:57:32;;;;;;;24.75;22.33;;;22.30;99.90;;;;;;5024897;28;19921;-76
2021/09/05 12:59:58;;;;;;;26.73;24.10;;;22.50;99.90;;;;;;5047232;28;20082;-76
2021/09/05 13:02:27;;;;;;;25.67;23.35;;;22.50;99.90;;;;;;5061241;28;20056;-75
2021/09/05 13:04:56;;;;;;;24.67;22.25;;;22.50;99.90;;;;;;5036503;28;20048;-73